Time;durP1;ratioP1;P1;durP2;ratioP2;P2;SDS_P1;SDS_P2;PMS_P1;PMS_P2;Temp;Humidity;BMP_temperature;BMP_pressure;BME280_temperature;BME280_humidity;BME280_pressure;Samples;Min_cycle;Max_cycle;Signal;HPM_P1;HPM_P2
2022/01/11 00:01:17;;;;;;;;;;;-1.60;99.90;;;;;;5079542;28;19928;-73
2022/01/11 00:03:44;;;;;;;;;;;-1.70;99.90;;;;;;5074412;28;19932;-73
2022/01/11 00:08:59;;;;;;;;;;;-1.70;99.90;;;;;;5074050;28;19924;-73
2022/01/11 00:11:26;;;;;;;;;;;-1.70;99.90;;;;;;5071428;28;20615;-73
2022/01/11 00:13:53;;;;;;;;;;;-1.60;99.90;;;;;;5070247;28;19924;-73
2022/01/11 00:16:19;;;;;;;;;;;-1.60;99.90;;;;;;5070821;28;19925;-73
2022/01/11 00:18:46;;;;;;;;;;;-1.60;99.90;;;;;;5076947;28;19932;-73
2022/01/11 00:21:13;;;;;;;;;;;-1.60;99.90;;;;;;5076615;28;19931;-73
2022/01/11 00:26:06;;;;;;;;;;;-1.70;99.90;;;;;;5077762;28;19935;-73
2022/01/11 00:28:33;;;;;;;;;;;-1.70;99.90;;;;;;5083012;28;19991;-73
2022/01/11 00:31:02;;;;;;;;;;;-1.80;99.90;;;;;;5079422;28;20065;-73
2022/01/11 00:33:43;;;;;;;;;;;-1.80;99.90;;;;;;5078952;28;19931;-73
2022/01/11 00:36:11;;;;;;;;;;;-1.90;99.90;;;;;;5070727;28;20052;-73
2022/01/11 00:38:39;;;;;;;;;;;-1.90;99.90;;;;;;5074839;28;20443;-73
2022/01/11 00:41:07;;;;;;;;;;;-1.80;99.90;;;;;;5083201;28;19934;-73
2022/01/11 00:43:35;;;;;;;;;;;-1.80;99.90;;;;;;5079368;28;19956;-73
2022/01/11 00:46:03;;;;;;;;;;;-1.70;99.90;;;;;;5090769;28;19983;-73
2022/01/11 00:48:29;;;;;;;;;;;-1.70;99.90;;;;;;5080510;28;19974;-72
2022/01/11 00:50:56;;;;;;;;;;;-1.70;99.90;;;;;;5090137;28;19993;-73
2022/01/11 00:53:23;;;;;;;;;;;-1.70;99.90;;;;;;5077445;28;19952;-73
2022/01/11 00:55:50;;;;;;;;;;;-1.70;99.90;;;;;;5082459;28;19930;-73
2022/01/11 00:58:18;;;;;;;;;;;-1.70;99.90;;;;;;5080646;28;20019;-73
2022/01/11 01:00:45;;;;;;;;;;;-1.70;99.90;;;;;;5080696;28;19928;-73
2022/01/11 01:03:12;;;;;;;;;;;-1.70;99.90;;;;;;5080466;28;20426;-73
2022/01/11 01:05:39;;;;;;;;;;;-1.70;99.90;;;;;;5084063;28;19924;-73
2022/01/11 01:08:06;;;;;;;;;;;-1.70;99.90;;;;;;5083719;28;19934;-73
2022/01/11 01:10:39;;;;;;;;;;;-1.70;99.90;;;;;;5083098;28;20442;-73
2022/01/11 01:13:08;;;;;;;;;;;-1.70;99.90;;;;;;5087041;28;20031;-73
2022/01/11 01:15:35;;;;;;;;;;;-1.60;99.90;;;;;;5078007;28;19928;-73
2022/01/11 01:18:04;;;;;;;;;;;-1.50;99.90;;;;;;5077537;28;19924;-73
2022/01/11 01:20:31;;;;;;;;;;;-1.40;99.90;;;;;;5082923;28;19958;-72
2022/01/11 01:22:58;;;;;;;;;;;-1.30;99.90;;;;;;5087207;28;20149;-73
2022/01/11 01:25:25;;;;;;;;;;;-1.20;99.90;;;;;;5074959;28;19977;-72
2022/01/11 01:27:52;;;;;;;;;;;-1.10;99.90;;;;;;5080995;28;20035;-72
2022/01/11 01:30:20;;;;;;;;;;;-1.10;99.90;;;;;;5056409;28;20440;-72
2022/01/11 01:32:48;;;;;;;;;;;-1.10;99.90;;;;;;5078192;28;19962;-73
2022/01/11 01:35:16;;;;;;;;;;;-1.20;99.90;;;;;;5089163;28;19939;-72
2022/01/11 01:37:43;;;;;;;;;;;-1.20;99.90;;;;;;5073624;28;20011;-72
2022/01/11 01:40:12;;;;;;;;;;;-1.20;99.90;;;;;;5072877;28;19967;-73
2022/01/11 01:42:40;;;;;;;;;;;-1.20;99.90;;;;;;5082246;28;20010;-72
2022/01/11 01:45:07;;;;;;;;;;;-1.20;99.90;;;;;;5077456;28;20008;-72
2022/01/11 01:47:33;;;;;;;;;;;-1.20;99.90;;;;;;5074588;28;19932;-72
2022/01/11 01:50:00;;;;;;;;;;;-1.30;99.90;;;;;;5078100;28;19924;-72
2022/01/11 01:52:27;;;;;;;;;;;-1.40;99.90;;;;;;5075850;28;20007;-73
2022/01/11 01:54:54;;;;;;;;;;;-1.40;99.90;;;;;;5082636;28;20321;-73
2022/01/11 01:57:21;;;;;;;;;;;-1.50;99.90;;;;;;5082460;28;19931;-73
2022/01/11 01:59:47;;;;;;;;;;;-1.50;99.90;;;;;;5075857;28;19924;-73
2022/01/11 02:02:14;;;;;;;;;;;-1.40;99.90;;;;;;5089589;28;20009;-73
2022/01/11 02:04:41;;;;;;;;;;;-1.50;99.90;;;;;;5076730;28;19924;-73
2022/01/11 02:07:08;;;;;;;;;;;-1.50;99.90;;;;;;5082614;28;20015;-73
2022/01/11 02:09:35;;;;;;;;;;;-1.50;99.90;;;;;;5078866;28;19963;-73
2022/01/11 02:12:02;;;;;;;;;;;-1.40;99.90;;;;;;5083355;28;19930;-73
2022/01/11 02:14:29;;;;;;;;;;;-1.40;99.90;;;;;;5076657;28;19932;-73
2022/01/11 02:16:57;;;;;;;;;;;-1.40;99.90;;;;;;5087110;28;19936;-73
2022/01/11 02:19:24;;;;;;;;;;;-1.40;99.90;;;;;;5073014;28;20049;-73
2022/01/11 02:21:50;;;;;;;;;;;-1.30;99.90;;;;;;5074567;28;20011;-73
2022/01/11 02:24:18;;;;;;;;;;;-1.30;99.90;;;;;;5077540;28;19928;-73
2022/01/11 02:26:45;;;;;;;;;;;-1.40;99.90;;;;;;5086906;28;19931;-73
2022/01/11 02:29:12;;;;;;;;;;;-1.40;99.90;;;;;;5086706;28;20472;-73
2022/01/11 02:31:39;;;;;;;;;;;-1.40;99.90;;;;;;5078456;28;19930;-73
2022/01/11 02:34:05;;;;;;;;;;;-1.40;99.90;;;;;;5082861;28;19928;-73
2022/01/11 02:36:34;;;;;;;;;;;-1.50;99.90;;;;;;5076781;28;19932;-73
2022/01/11 02:39:01;;;;;;;;;;;-1.50;99.90;;;;;;5078672;28;19924;-73
2022/01/11 02:41:28;;;;;;;;;;;-1.60;99.90;;;;;;5074835;28;19931;-73
2022/01/11 02:43:55;;;;;;;;;;;-1.60;99.90;;;;;;5094170;28;19955;-73
2022/01/11 02:46:23;;;;;;;;;;;-1.70;99.90;;;;;;5093125;28;19924;-73
2022/01/11 02:48:51;;;;;;;;;;;-1.80;99.90;;;;;;5079852;28;20114;-72
2022/01/11 02:51:17;;;;;;;;;;;-1.80;99.90;;;;;;5072581;28;19999;-73
2022/01/11 02:53:46;;;;;;;;;;;-1.90;99.90;;;;;;5081385;28;19967;-73
2022/01/11 02:56:13;;;;;;;;;;;-1.90;99.90;;;;;;5090173;28;19930;-72
2022/01/11 02:58:40;;;;;;;;;;;-1.80;99.90;;;;;;5083929;28;20422;-73
2022/01/11 03:01:07;;;;;;;;;;;-1.80;99.90;;;;;;5074701;28;20060;-73
2022/01/11 03:03:34;;;;;;;;;;;-1.80;99.90;;;;;;5077934;28;20339;-72
2022/01/11 03:06:02;;;;;;;;;;;-1.80;99.90;;;;;;5082429;28;20439;-73
2022/01/11 03:08:30;;;;;;;;;;;-1.80;99.90;;;;;;5080447;28;19928;-73
2022/01/11 03:10:57;;;;;;;;;;;-1.80;99.90;;;;;;5083847;28;20333;-73
2022/01/11 03:13:24;;;;;;;;;;;-1.80;99.90;;;;;;5075215;28;19928;-72
2022/01/11 03:15:52;;;;;;;;;;;-1.70;99.90;;;;;;5071240;28;19960;-73
2022/01/11 03:18:20;;;;;;;;;;;-1.70;99.90;;;;;;5077582;28;20027;-73
2022/01/11 03:20:48;;;;;;;;;;;-1.60;99.90;;;;;;5074865;28;19931;-72
2022/01/11 03:23:16;;;;;;;;;;;-1.50;99.90;;;;;;5074795;28;20031;-72
2022/01/11 03:25:43;;;;;;;;;;;-1.40;99.90;;;;;;5079837;28;20019;-72
2022/01/11 03:28:10;;;;;;;;;;;-1.30;99.90;;;;;;5084586;28;20007;-72
2022/01/11 03:30:37;;;;;;;;;;;-1.30;99.90;;;;;;5072055;28;20416;-72
2022/01/11 03:33:07;;;;;;;;;;;-1.10;99.90;;;;;;5084793;28;19924;-72
2022/01/11 03:35:35;;;;;;;;;;;-1.10;99.90;;;;;;5072338;28;19975;-72
2022/01/11 03:38:04;;;;;;;;;;;-1.10;99.90;;;;;;5072295;28;19977;-73
2022/01/11 03:40:31;;;;;;;;;;;-1.00;99.90;;;;;;5073420;28;20038;-72
2022/01/11 03:42:58;;;;;;;;;;;-0.90;99.90;;;;;;5071736;28;20000;-72
2022/01/11 03:45:25;;;;;;;;;;;-0.90;99.90;;;;;;5076024;28;20009;-73
2022/01/11 03:47:54;;;;;;;;;;;-0.80;99.90;;;;;;5074639;28;19960;-72
2022/01/11 03:50:21;;;;;;;;;;;-0.80;99.90;;;;;;5074866;28;20022;-73
2022/01/11 03:52:57;;;;;;;;;;;-0.70;99.90;;;;;;5061824;28;19933;-72
2022/01/11 03:55:43;;;;;;;;;;;-0.70;99.90;;;;;;5109839;27;20434;-72
2022/01/11 03:58:11;;;;;;;;;;;-0.60;99.90;;;;;;5079363;28;20032;-72
2022/01/11 04:00:38;;;;;;;;;;;-0.60;99.90;;;;;;5081421;28;19931;-72
2022/01/11 04:03:05;;;;;;;;;;;-0.60;99.90;;;;;;5081189;28;19928;-73
2022/01/11 04:05:32;;;;;;;;;;;-0.70;99.90;;;;;;5090608;28;19954;-73
2022/01/11 04:07:59;;;;;;;;;;;-0.60;99.90;;;;;;5070866;28;20298;-73
2022/01/11 04:10:26;;;;;;;;;;;-0.60;99.90;;;;;;5077644;28;19932;-73
2022/01/11 04:12:53;;;;;;;;;;;-0.60;99.90;;;;;;5075817;28;20019;-73
2022/01/11 04:15:19;;;;;;;;;;;-0.60;99.90;;;;;;5081222;28;19985;-73
2022/01/11 04:17:46;;;;;;;;;;;-0.60;99.90;;;;;;5076891;28;19938;-73
2022/01/11 04:20:14;;;;;;;;;;;-0.60;99.90;;;;;;5076839;28;20015;-72
2022/01/11 04:22:41;;;;;;;;;;;-0.50;99.90;;;;;;5070884;28;20011;-73
2022/01/11 04:25:08;;;;;;;;;;;-0.50;99.90;;;;;;5073492;28;19982;-73
2022/01/11 04:27:35;;;;;;;;;;;-0.50;99.90;;;;;;5079657;28;19925;-74
2022/01/11 04:30:02;;;;;;;;;;;-0.60;99.90;;;;;;5086366;28;19928;-73
2022/01/11 04:32:30;;;;;;;;;;;-0.70;99.90;;;;;;5077642;28;20003;-73
2022/01/11 04:34:57;;;;;;;;;;;-0.70;99.90;;;;;;5073138;28;20447;-73
2022/01/11 04:37:24;;;;;;;;;;;-0.60;99.90;;;;;;5081712;28;19928;-73
2022/01/11 04:39:50;;;;;;;;;;;-0.60;99.90;;;;;;5081914;28;19931;-73
2022/01/11 04:42:17;;;;;;;;;;;-0.60;99.90;;;;;;5074923;28;19931;-73
2022/01/11 04:44:44;;;;;;;;;;;-0.50;99.90;;;;;;5082234;28;19970;-73
2022/01/11 04:47:10;;;;;;;;;;;-0.60;99.90;;;;;;5075326;28;20375;-73
2022/01/11 04:49:37;;;;;;;;;;;-0.40;99.90;;;;;;5069341;28;19932;-73
2022/01/11 04:52:06;;;;;;;;;;;-0.40;99.90;;;;;;5083770;28;19931;-73
2022/01/11 04:54:32;;;;;;;;;;;-0.40;99.90;;;;;;5080911;28;19962;-73
2022/01/11 04:56:59;;;;;;;;;;;-0.40;99.90;;;;;;5083072;28;19935;-73
2022/01/11 04:59:27;;;;;;;;;;;-0.30;99.90;;;;;;5078697;28;19968;-73
2022/01/11 05:01:53;;;;;;;;;;;-0.30;99.90;;;;;;5076035;28;19924;-73
2022/01/11 05:04:20;;;;;;;;;;;-0.40;99.90;;;;;;5072047;28;19931;-73
2022/01/11 05:06:47;;;;;;;;;;;-0.40;99.90;;;;;;5078644;28;19924;-73
2022/01/11 05:09:13;;;;;;;;;;;-0.40;99.90;;;;;;5073232;28;19924;-73
2022/01/11 05:11:40;;;;;;;;;;;-0.40;99.90;;;;;;5081028;28;19931;-73
2022/01/11 05:14:07;;;;;;;;;;;-0.40;99.90;;;;;;5075561;28;20455;-73
2022/01/11 05:16:34;;;;;;;;;;;-0.50;99.90;;;;;;5081670;28;19974;-73
2022/01/11 05:19:00;;;;;;;;;;;-0.40;99.90;;;;;;5083193;28;19924;-73
2022/01/11 05:21:27;;;;;;;;;;;-0.40;99.90;;;;;;5071553;28;20027;-73
2022/01/11 05:23:54;;;;;;;;;;;-0.40;99.90;;;;;;5081594;28;20007;-73
2022/01/11 05:26:20;;;;;;;;;;;-0.30;99.90;;;;;;5078919;28;20015;-73
2022/01/11 05:28:47;;;;;;;;;;;-0.20;99.90;;;;;;5085022;28;19924;-73
2022/01/11 05:31:14;;;;;;;;;;;-0.20;99.90;;;;;;5076924;28;19925;-73
2022/01/11 05:33:40;;;;;;;;;;;-0.20;99.90;;;;;;5077508;28;19939;-74
2022/01/11 05:36:07;;;;;;;;;;;-0.30;99.90;;;;;;5086474;28;20008;-74
2022/01/11 05:38:34;;;;;;;;;;;-0.30;99.90;;;;;;5081518;28;19960;-74
2022/01/11 05:41:01;;;;;;;;;;;-0.30;99.90;;;;;;5077379;28;19929;-74
2022/01/11 05:43:27;;;;;;;;;;;-0.40;99.90;;;;;;5078668;28;19924;-74
2022/01/11 05:45:54;;;;;;;;;;;-0.40;99.90;;;;;;5084776;28;19924;-73
2022/01/11 05:48:22;;;;;;;;;;;-0.40;99.90;;;;;;5081253;28;20403;-73
2022/01/11 05:50:48;;;;;;;;;;;-0.40;99.90;;;;;;5080341;28;20024;-73
2022/01/11 05:53:15;;;;;;;;;;;-0.50;99.90;;;;;;5079363;28;20274;-73
2022/01/11 05:55:42;;;;;;;;;;;-0.40;99.90;;;;;;5084971;28;19932;-74
2022/01/11 05:58:12;;;;;;;;;;;-0.40;99.90;;;;;;5076815;28;19925;-74
2022/01/11 06:00:39;;;;;;;;;;;-0.40;99.90;;;;;;5075009;28;19924;-74
2022/01/11 06:03:05;;;;;;;;;;;-0.40;99.90;;;;;;5082011;28;19924;-74
2022/01/11 06:05:37;;;;;;;;;;;-0.50;99.90;;;;;;5082042;28;19924;-74
2022/01/11 06:08:05;;;;;;;;;;;-0.50;99.90;;;;;;5080465;28;20386;-74
2022/01/11 06:10:31;;;;;;;;;;;-0.40;99.90;;;;;;5082159;28;20007;-74
2022/01/11 06:12:58;;;;;;;;;;;-0.40;99.90;;;;;;5084510;28;19990;-74
2022/01/11 06:15:26;;;;;;;;;;;-0.40;99.90;;;;;;5076188;28;20389;-73
2022/01/11 06:17:53;;;;;;;;;;;-0.30;99.90;;;;;;5078945;28;19970;-74
2022/01/11 06:20:20;;;;;;;;;;;-0.30;99.90;;;;;;5088908;28;20014;-74
2022/01/11 06:22:46;;;;;;;;;;;-0.40;99.90;;;;;;5088078;28;19935;-74
2022/01/11 06:25:13;;;;;;;;;;;-0.30;99.90;;;;;;5078087;28;20348;-74
2022/01/11 06:27:40;;;;;;;;;;;-0.40;99.90;;;;;;5080548;28;20002;-74
2022/01/11 06:30:12;;;;;;;;;;;-0.30;99.90;;;;;;5075260;28;19964;-74
2022/01/11 06:32:39;;;;;;;;;;;-0.30;99.90;;;;;;5082583;28;19970;-74
2022/01/11 06:35:06;;;;;;;;;;;-0.30;99.90;;;;;;5078169;28;20529;-74
2022/01/11 06:37:33;;;;;;;;;;;-0.30;99.90;;;;;;5071523;28;19974;-74
2022/01/11 06:40:01;;;;;;;;;;;-0.30;99.90;;;;;;5085849;28;20011;-74
2022/01/11 06:42:27;;;;;;;;;;;-0.20;99.90;;;;;;5082789;28;20359;-75
2022/01/11 06:44:54;;;;;;;;;;;-0.30;99.90;;;;;;5081727;28;20342;-74
2022/01/11 06:47:21;;;;;;;;;;;-0.30;99.90;;;;;;5075390;28;19924;-74
2022/01/11 06:49:48;;;;;;;;;;;-0.30;99.90;;;;;;5059278;28;20219;-74
2022/01/11 06:52:14;;;;;;;;;;;-0.30;99.90;;;;;;5076856;28;19924;-73
2022/01/11 06:54:41;;;;;;;;;;;-0.30;99.90;;;;;;5077792;28;20500;-73
2022/01/11 06:57:08;;;;;;;;;;;-0.30;99.90;;;;;;5083401;28;20011;-74
2022/01/11 06:59:36;;;;;;;;;;;-0.10;99.90;;;;;;5077092;28;20012;-74
2022/01/11 07:02:04;;;;;;;;;;;-0.20;99.90;;;;;;5078715;28;20012;-73
2022/01/11 07:04:31;;;;;;;;;;;-0.20;99.90;;;;;;5073495;28;20008;-74
2022/01/11 07:06:57;;;;;;;;;;;-0.20;99.90;;;;;;5100909;28;19928;-74
2022/01/11 07:09:24;;;;;;;;;;;-0.20;99.90;;;;;;5057908;28;19939;-74
2022/01/11 07:11:51;;;;;;;;;;;-0.20;99.90;;;;;;5078481;28;20367;-74
2022/01/11 07:14:18;;;;;;;;;;;-0.20;99.90;;;;;;5081287;28;19963;-74
2022/01/11 07:16:48;;;;;;;;;;;-0.20;99.90;;;;;;5072965;28;20612;-74
2022/01/11 07:19:16;;;;;;;;;;;-0.20;99.90;;;;;;5075149;28;19928;-74
2022/01/11 07:21:44;;;;;;;;;;;-0.20;99.90;;;;;;5079495;28;19952;-74
2022/01/11 07:24:12;;;;;;;;;;;-0.10;99.90;;;;;;5072768;28;20023;-74
2022/01/11 07:26:38;;;;;;;;;;;-0.20;99.90;;;;;;5078059;28;20053;-74
2022/01/11 07:29:05;;;;;;;;;;;-0.20;99.90;;;;;;5082092;28;19924;-75
2022/01/11 07:31:32;;;;;;;;;;;-0.10;99.90;;;;;;5069707;28;19963;-75
2022/01/11 07:33:59;;;;;;;;;;;-0.10;99.90;;;;;;5068790;28;19981;-75
2022/01/11 07:36:26;;;;;;;;;;;-0.10;99.90;;;;;;5077613;28;20010;-74
2022/01/11 07:38:52;;;;;;;;;;;0.00;99.90;;;;;;5075257;28;19934;-75
2022/01/11 07:41:19;;;;;;;;;;;0.00;99.90;;;;;;5071881;28;19932;-74
2022/01/11 07:43:46;;;;;;;;;;;0.00;99.90;;;;;;5078321;28;19932;-75
2022/01/11 07:46:12;;;;;;;;;;;0.10;99.90;;;;;;5081334;28;19931;-74
2022/01/11 07:48:39;;;;;;;;;;;0.20;99.90;;;;;;5079905;28;19925;-74
2022/01/11 07:51:06;;;;;;;;;;;0.20;99.90;;;;;;5079789;28;19924;-74
2022/01/11 07:53:33;;;;;;;;;;;0.20;99.90;;;;;;5083147;28;19924;-75
2022/01/11 07:56:00;;;;;;;;;;;0.20;99.90;;;;;;5080452;28;20016;-75
2022/01/11 07:58:26;;;;;;;;;;;0.20;99.90;;;;;;5072511;28;20063;-75
2022/01/11 08:00:53;;;;;;;;;;;0.10;99.90;;;;;;5093982;28;19924;-75
2022/01/11 08:03:20;;;;;;;;;;;0.30;99.90;;;;;;5076696;28;19924;-75
2022/01/11 08:05:47;;;;;;;;;;;0.30;99.90;;;;;;5098492;28;19964;-75
2022/01/11 08:08:13;;;;;;;;;;;0.30;99.90;;;;;;5077361;28;19931;-75
2022/01/11 08:10:40;;;;;;;;;;;0.40;99.90;;;;;;5072987;28;19924;-75
2022/01/11 08:13:09;;;;;;;;;;;0.50;99.90;;;;;;5072783;28;19924;-75
2022/01/11 08:15:37;;;;;;;;;;;0.50;99.90;;;;;;5081213;28;19925;-75
2022/01/11 08:18:05;;;;;;;;;;;0.60;99.90;;;;;;5076503;28;20055;-75
2022/01/11 08:20:32;;;;;;;;;;;0.60;99.90;;;;;;5087226;28;19932;-75
2022/01/11 08:22:59;;;;;;;;;;;0.70;99.90;;;;;;5079823;28;19934;-76
2022/01/11 08:25:26;;;;;;;;;;;0.70;99.90;;;;;;5081208;28;20386;-75
2022/01/11 08:27:53;;;;;;;;;;;0.80;99.90;;;;;;5074812;28;20310;-75
2022/01/11 08:30:19;;;;;;;;;;;0.90;99.90;;;;;;5079797;28;19925;-76
2022/01/11 08:32:46;;;;;;;;;;;0.90;99.90;;;;;;5071049;28;19979;-76
2022/01/11 08:35:13;;;;;;;;;;;0.90;99.90;;;;;;5082359;28;19930;-75
2022/01/11 08:37:39;;;;;;;;;;;1.00;99.90;;;;;;5076139;28;19971;-76
2022/01/11 08:40:06;;;;;;;;;;;1.00;99.90;;;;;;5079052;28;19928;-76
2022/01/11 08:42:33;;;;;;;;;;;1.10;99.90;;;;;;5071090;28;19920;-76
2022/01/11 08:45:00;;;;;;;;;;;1.20;99.90;;;;;;5074695;28;19990;-75
2022/01/11 08:47:32;;;;;;;;;;;1.30;99.90;;;;;;5072080;28;19927;-75
2022/01/11 08:49:59;;;;;;;;;;;1.30;99.90;;;;;;5093715;28;19924;-76
2022/01/11 08:52:26;;;;;;;;;;;1.30;99.90;;;;;;5072246;28;20375;-76
2022/01/11 08:54:53;;;;;;;;;;;1.30;99.90;;;;;;5079000;28;19958;-75
2022/01/11 08:57:20;;;;;;;;;;;1.40;99.90;;;;;;5076483;28;20011;-76
2022/01/11 08:59:47;;;;;;;;;;;1.40;99.90;;;;;;5078216;28;19920;-74
2022/01/11 09:02:14;;;;;;;;;;;1.50;99.90;;;;;;5075168;28;19927;-75
2022/01/11 09:04:42;;;;;;;;;;;1.60;99.90;;;;;;5083406;28;19927;-75
2022/01/11 09:07:10;;;;;;;;;;;1.60;99.90;;;;;;5059308;28;19921;-75
2022/01/11 09:09:38;;;;;;;;;;;1.70;99.90;;;;;;5093302;28;19934;-76
2022/01/11 09:12:08;;;;;;;;;;;1.70;99.90;;;;;;5086274;28;20007;-75
2022/01/11 09:14:36;;;;;;;;;;;1.90;99.90;;;;;;5067645;28;20046;-75
2022/01/11 09:17:02;;;;;;;;;;;2.00;99.90;;;;;;5072403;28;19920;-75
2022/01/11 09:19:30;;;;;;;;;;;2.10;99.90;;;;;;5073654;28;20347;-75
2022/01/11 09:21:57;;;;;;;;;;;2.20;99.90;;;;;;5084260;28;19924;-74
2022/01/11 09:24:29;;;;;;;;;;;2.30;99.90;;;;;;5083154;28;19924;-76
2022/01/11 09:26:58;;;;;;;;;;;2.40;99.90;;;;;;5077056;28;20022;-74
2022/01/11 09:29:26;;;;;;;;;;;2.40;99.90;;;;;;5085283;28;20416;-77
2022/01/11 09:31:56;;;;;;;;;;;2.40;99.90;;;;;;5072577;28;19967;-75
2022/01/11 09:34:23;;;;;;;;;;;2.40;99.90;;;;;;5072969;28;19920;-76
2022/01/11 09:36:50;;;;;;;;;;;2.40;99.90;;;;;;5080287;28;19935;-75
2022/01/11 09:39:17;;;;;;;;;;;2.50;99.90;;;;;;5083206;28;19967;-75
2022/01/11 09:41:43;;;;;;;;;;;2.60;99.90;;;;;;5079329;28;19924;-75
2022/01/11 09:44:11;;;;;;;;;;;2.70;99.90;;;;;;5081259;28;19920;-75
2022/01/11 09:46:38;;;;;;;;;;;2.80;99.90;;;;;;5071760;28;20019;-76
2022/01/11 09:49:05;;;;;;;;;;;2.90;99.90;;;;;;5080950;28;20747;-76
2022/01/11 09:51:32;;;;;;;;;;;2.80;99.90;;;;;;5078196;28;19923;-75
2022/01/11 09:53:59;;;;;;;;;;;2.90;99.90;;;;;;5078121;28;19932;-76
2022/01/11 09:56:25;;;;;;;;;;;2.90;99.90;;;;;;5082866;28;20007;-76
2022/01/11 09:58:52;;;;;;;;;;;3.10;99.90;;;;;;5078924;28;19928;-77
2022/01/11 10:01:19;;;;;;;;;;;3.10;99.90;;;;;;5078087;28;19931;-77
2022/01/11 10:04:01;;;;;;;;;;;3.20;99.90;;;;;;5079966;28;19942;-76
2022/01/11 10:06:28;;;;;;;;;;;3.20;99.90;;;;;;5080775;28;19920;-77
2022/01/11 10:09:10;;;;;;;;;;;3.30;99.90;;;;;;5087616;28;20011;-77
2022/01/11 10:11:38;;;;;;;;;;;3.40;99.90;;;;;;5085015;28;19973;-77
2022/01/11 10:14:24;;;;;;;;;;;3.60;99.90;;;;;;5062547;28;19925;-77
2022/01/11 10:17:04;;;;;;;;;;;3.60;99.90;;;;;;5078069;28;19928;-78
2022/01/11 10:19:32;;;;;;;;;;;3.60;99.90;;;;;;5088213;28;20010;-78
2022/01/11 10:22:01;;;;;;;;;;;3.80;99.90;;;;;;5097839;28;19974;-78
2022/01/11 10:24:39;;;;;;;;;;;3.90;99.90;;;;;;5076385;28;19963;-78
2022/01/11 10:27:07;;;;;;;;;;;4.00;99.90;;;;;;5082953;28;19920;-78
2022/01/11 10:29:40;;;;;;;;;;;4.20;99.90;;;;;;5087359;28;20013;-78
2022/01/11 10:32:12;;;;;;;;;;;4.20;99.90;;;;;;5091270;28;19970;-78
2022/01/11 10:34:39;;;;;;;;;;;4.30;99.90;;;;;;5085986;28;19971;-78
2022/01/11 10:37:06;;;;;;;;;;;4.40;99.90;;;;;;5089412;28;19920;-79
2022/01/11 10:39:35;;;;;;;;;;;4.40;99.90;;;;;;5089607;28;19943;-78
2022/01/11 10:42:02;;;;;;;;;;;4.50;99.90;;;;;;5081800;28;20294;-78
2022/01/11 10:44:51;;;;;;;;;;;4.50;99.90;;;;;;5086047;28;19993;-78
2022/01/11 10:47:23;;;;;;;;;;;4.60;99.90;;;;;;5054790;28;20374;-78
2022/01/11 10:49:51;;;;;;;;;;;4.60;99.90;;;;;;5079961;28;19960;-78
2022/01/11 10:52:23;;;;;;;;;;;4.60;99.90;;;;;;5073018;28;20557;-78
2022/01/11 10:54:50;;;;;;;;;;;4.60;99.90;;;;;;5079517;28;20004;-79
2022/01/11 10:57:18;;;;;;;;;;;4.70;99.90;;;;;;5078739;28;20007;-79
2022/01/11 11:00:04;;;;;;;;;;;4.70;99.90;;;;;;5080339;28;19935;-79
2022/01/11 11:02:31;;;;;;;;;;;4.90;99.90;;;;;;5084551;28;19927;-78
2022/01/11 11:04:58;;;;;;;;;;;5.10;99.90;;;;;;5083223;28;20362;-79
2022/01/11 11:07:40;;;;;;;;;;;5.20;99.90;;;;;;5081036;28;19920;-81
2022/01/11 11:10:07;;;;;;;;;;;5.20;99.90;;;;;;5087678;28;19920;-79
2022/01/11 11:12:34;;;;;;;;;;;5.20;99.90;;;;;;5083558;28;19927;-81
2022/01/11 11:15:01;;;;;;;;;;;5.30;99.90;;;;;;5080972;28;19920;-79
2022/01/11 11:17:28;;;;;;;;;;;5.30;99.90;;;;;;5079568;28;20007;-79
2022/01/11 11:20:00;;;;;;;;;;;5.30;99.90;;;;;;5083480;28;19998;-81
2022/01/11 11:22:27;;;;;;;;;;;5.30;99.90;;;;;;5078144;28;19943;-81
2022/01/11 11:24:54;;;;;;;;;;;5.50;99.90;;;;;;5082945;28;19956;-81
2022/01/11 11:27:21;;;;;;;;;;;5.70;99.90;;;;;;5079017;28;20015;-81
2022/01/11 11:29:48;;;;;;;;;;;5.80;99.90;;;;;;5079615;28;19928;-81
2022/01/11 11:32:17;;;;;;;;;;;5.80;99.90;;;;;;5091798;28;19928;-81
2022/01/11 11:34:45;;;;;;;;;;;6.10;99.90;;;;;;5083459;28;19952;-81
2022/01/11 11:37:14;;;;;;;;;;;6.30;99.90;;;;;;5077550;28;19920;-80
2022/01/11 11:39:41;;;;;;;;;;;6.20;99.90;;;;;;5078062;28;19920;-80
2022/01/11 11:42:10;;;;;;;;;;;6.30;99.90;;;;;;5078403;28;19928;-80
2022/01/11 11:44:37;;;;;;;;;;;6.30;99.90;;;;;;5081375;28;20003;-80
2022/01/11 11:47:05;;;;;;;;;;;6.30;99.90;;;;;;5088226;28;20660;-81
2022/01/11 11:49:47;;;;;;;;;;;6.40;99.90;;;;;;5087801;28;19953;-80
2022/01/11 11:52:23;;;;;;;;;;;6.50;99.90;;;;;;5081974;28;24082;-80
2022/01/11 11:55:12;;;;;;;;;;;6.60;99.90;;;;;;5081951;28;19932;-80
2022/01/11 11:57:42;;;;;;;;;;;6.70;99.90;;;;;;5075411;28;19924;-80
2022/01/11 12:00:11;;;;;;;;;;;6.60;99.90;;;;;;5084502;28;19924;-80
2022/01/11 12:02:39;;;;;;;;;;;6.50;99.90;;;;;;5089685;28;19928;-80
2022/01/11 12:05:14;;;;;;;;;;;6.60;99.90;;;;;;5073490;28;19940;-80
2022/01/11 12:07:44;;;;;;;;;;;6.60;99.90;;;;;;5081476;28;20329;-80
2022/01/11 12:10:15;;;;;;;;;;;6.60;99.90;;;;;;5043537;28;19931;-80
2022/01/11 12:12:54;;;;;;;;;;;6.60;99.90;;;;;;5084275;28;20355;-80
2022/01/11 12:15:35;;;;;;;;;;;6.70;99.90;;;;;;5072167;28;19924;-79
2022/01/11 12:18:05;;;;;;;;;;;6.60;99.90;;;;;;5079052;28;20011;-79
2022/01/11 12:20:38;;;;;;;;;;;6.70;99.90;;;;;;5084958;28;19924;-79
2022/01/11 12:23:06;;;;;;;;;;;6.60;99.90;;;;;;5051156;28;19935;-79
2022/01/11 12:25:37;;;;;;;;;;;6.60;99.90;;;;;;5079507;28;19971;-79
2022/01/11 12:28:06;;;;;;;;;;;6.60;99.90;;;;;;5074364;28;20117;-79
2022/01/11 12:30:34;;;;;;;;;;;6.60;99.90;;;;;;5076172;28;19931;-79
2022/01/11 12:33:07;;;;;;;;;;;6.70;99.90;;;;;;5077421;28;19993;-79
2022/01/11 12:35:49;;;;;;;;;;;6.70;99.90;;;;;;5083407;28;20409;-79
2022/01/11 12:38:15;;;;;;;;;;;6.70;99.90;;;;;;5086314;28;20185;-80
2022/01/11 12:40:43;;;;;;;;;;;6.70;99.90;;;;;;5078715;28;20442;-78
2022/01/11 12:43:17;;;;;;;;;;;6.60;99.90;;;;;;5085734;28;19924;-79
2022/01/11 12:46:02;;;;;;;;;;;6.60;99.90;;;;;;5082614;28;19925;-79
2022/01/11 12:48:48;;;;;;;;;;;6.60;99.90;;;;;;5095280;28;19924;-80
2022/01/11 12:51:30;;;;;;;;;;;6.70;99.90;;;;;;5079298;28;19999;-79
2022/01/11 12:54:12;;;;;;;;;;;6.70;99.90;;;;;;5080795;28;19947;-79
2022/01/11 12:56:39;;;;;;;;;;;6.70;99.90;;;;;;5085176;28;19941;-79
2022/01/11 12:59:06;;;;;;;;;;;6.70;99.90;;;;;;5088352;28;19955;-79
2022/01/11 13:01:33;;;;;;;;;;;6.70;99.90;;;;;;5084776;28;20382;-79
2022/01/11 13:04:01;;;;;;;;;;;6.70;99.90;;;;;;5090903;28;19928;-79
2022/01/11 13:06:28;;;;;;;;;;;6.70;99.90;;;;;;5067548;28;19924;-79
2022/01/11 13:08:59;;;;;;;;;;;6.70;99.90;;;;;;5086611;28;20465;-79
2022/01/11 13:11:26;;;;;;;;;;;6.70;99.90;;;;;;5086743;28;19924;-79
2022/01/11 13:14:18;;;;;;;;;;;6.70;99.90;;;;;;5083198;28;19940;-79
2022/01/11 13:16:46;;;;;;;;;;;6.60;99.90;;;;;;5084393;28;20003;-79
2022/01/11 13:19:15;;;;;;;;;;;6.60;99.90;;;;;;5076596;28;19920;-79
2022/01/11 13:21:42;;;;;;;;;;;6.50;99.90;;;;;;5088070;28;19924;-79
2022/01/11 13:26:46;;;;;;;;;;;6.60;99.90;;;;;;5073273;28;20557;-79
2022/01/11 13:29:15;;;;;;;;;;;6.60;99.90;;;;;;5081783;28;19954;-79
2022/01/11 13:31:42;;;;;;;;;;;6.60;99.90;;;;;;5080703;28;19928;-79
2022/01/11 13:34:13;;;;;;;;;;;6.60;99.90;;;;;;5078182;28;19971;-78
2022/01/11 13:36:43;;;;;;;;;;;6.70;99.90;;;;;;5085151;28;19920;-79
2022/01/11 13:39:19;;;;;;;;;;;6.90;99.90;;;;;;5088539;28;19946;-79
2022/01/11 13:41:47;;;;;;;;;;;7.10;99.90;;;;;;5092456;28;19970;-79
2022/01/11 13:44:15;;;;;;;;;;;7.10;99.90;;;;;;5086373;28;19963;-79
2022/01/11 13:46:43;;;;;;;;;;;7.20;99.90;;;;;;5075593;28;19921;-79
2022/01/11 13:49:15;;;;;;;;;;;7.30;99.90;;;;;;5079762;28;20011;-79
2022/01/11 13:51:43;;;;;;;;;;;7.30;99.90;;;;;;5082099;28;20007;-79
2022/01/11 13:54:10;;;;;;;;;;;7.30;99.90;;;;;;5086222;28;19920;-79
2022/01/11 13:56:43;;;;;;;;;;;7.20;99.90;;;;;;5077278;28;20430;-79
2022/01/11 13:59:11;;;;;;;;;;;7.10;99.90;;;;;;5081716;28;19928;-79
2022/01/11 14:01:38;;;;;;;;;;;7.00;99.90;;;;;;5080409;28;20325;-79
2022/01/11 14:04:16;;;;;;;;;;;6.90;99.90;;;;;;5076107;28;19935;-79
2022/01/11 14:06:44;;;;;;;;;;;6.90;99.90;;;;;;5083828;28;19966;-79
2022/01/11 14:09:17;;;;;;;;;;;6.70;99.90;;;;;;5085141;28;19921;-79
2022/01/11 14:14:40;;;;;;;;;;;6.60;99.90;;;;;;5109969;28;19923;-78
2022/01/11 14:17:11;;;;;;;;;;;6.40;99.90;;;;;;5107756;28;19920;-78
2022/01/11 14:19:50;;;;;;;;;;;6.40;99.90;;;;;;5098674;28;19920;-79
2022/01/11 14:22:20;;;;;;;;;;;6.30;99.90;;;;;;5107982;27;19962;-79
2022/01/11 14:24:49;;;;;;;;;;;6.20;99.90;;;;;;5102635;27;19920;-79
2022/01/11 14:27:17;;;;;;;;;;;6.10;99.90;;;;;;5108981;28;19930;-78
2022/01/11 14:29:52;;;;;;;;;;;6.00;99.90;;;;;;5091427;28;19930;-79
2022/01/11 14:32:19;;;;;;;;;;;5.90;99.90;;;;;;5108691;28;19920;-79
2022/01/11 14:34:58;;;;;;;;;;;5.80;99.90;;;;;;5105029;28;19926;-79
2022/01/11 14:37:26;;;;;;;;;;;5.80;99.90;;;;;;5095121;27;19919;-79
2022/01/11 14:39:53;;;;;;;;;;;5.70;99.90;;;;;;5102106;27;19920;-79
2022/01/11 14:42:24;;;;;;;;;;;5.60;99.90;;;;;;5106441;28;20396;-79